Alden, NY (14004)

4:43 PM EST on December 09, 2016 (GMT -0500)
| | Change Station

Elev -9999 ft 0.00 °N, 0.00 °E | Updated 40 seconds ago

Mostly Cloudy
Mostly Cloudy
76 °F
Feels Like 76 °F
N
6
Wind Variable Wind from SSW
Gusts mph

Today
High -- | Low -- °F
--% Chance of Precip.
Yesterday
High -- | Low -- °F
Precip. -- in
Pressure 30.30 in
Visibility 10.0 miles
Clouds Few 3500 ft
Mostly Cloudy 5000 ft
Mostly Cloudy 6000 ft
Mostly Cloudy 28000 ft
Dew Point 62 °F
Humidity 62%
Rainfall --
Snow Depth Not available.
7:33 AM 4:39 PM
Waxing Gibbous, 77% visible
METAR KBUF 092054Z 28009KT 10SM FEW035 BKN050 BKN060 BKN280 M02/M10 A3026 RMK AO2 SLP258 SHSN DSNT N SE T10171100 53011
Pressure 30.30 in
Visibility 10.0 miles
Clouds Few 3500 ft
Mostly Cloudy 5000 ft
Mostly Cloudy 6000 ft
Mostly Cloudy 28000 ft
Dew Point 62 °F
Humidity 62%
Rainfall --
Snow Depth Not available.
7:33 AM 4:39 PM
Waxing Gibbous, 77% visible
METAR KBUF 092054Z 28009KT 10SM FEW035 BKN050 BKN060 BKN280 M02/M10 A3026 RMK AO2 SLP258 SHSN DSNT N SE T10171100 53011

10-Day Weather Forecast

Almanac

Astronomy

Dec. 09, 2016 Rise Set
Actual Time
Civil Twilight
Nautical Twilight
Astronomical Twilight
Moon
Length of Visible Light
Length of Day
Tomorrow will be .
, % of the Moon is Illuminated

Today's Extremes

State Highs State Lows

Community

WunderPhotos

Upload Photos

1,956,517 photos uploaded!

WunderBlog® & News

Nearby

Air Quality

  Air Quality AQ Index Pollutant
Not available.

Snow Depth

Station Depth Elevation

Earthquake Activity

City Distance Mag. Time & Date
Minimum magnitude displayed is 2.5.

Coastal Water Temperatures

Place Temperature

Stations

Nearby Weather Stations

Station Location Temp. Windchill Dew Point Humidity Wind Precip. Elev Updated Type
                   

Watches & Warnings

There are currently no watches in effect.